Lockwood, CA (93932)

5:20 AM PST on December 06, 2016 (GMT -0800)
Davis Canyon / Argyle | | Change Station

Elev 1179 ft 35.99 °N, 121.13 °W | Updated 9 seconds ago

Overcast
Overcast
39.4 °F
Feels Like 39 °F
N
0.0
Wind Variable Wind from ESE
Gusts 0.0 mph

Today
High -- | Low -- °F
--% Chance of Precip.
Yesterday
High -- | Low -- °F
Precip. -- in
Pressure 30.01 in
Visibility 2.5 miles
Clouds Overcast 300 ft
Windchill 39 °F
Dew Point 39 °F
Humidity 99%
Rainfall 0.00 in
Snow Depth Not available.
7:01 AM 4:50 PM
Waxing Crescent, 41% visible
METAR KPRB 061253Z AUTO 13003KT 2 1/2SM BR OVC003 06/06 A3001 RMK AO2 SLP163 T00560056 TSNO $
Pressure 30.01 in
Visibility 2.5 miles
Clouds Overcast 300 ft
Windchill 39 °F
Dew Point 39 °F
Humidity 99%
Rainfall 0.00 in
Snow Depth Not available.
7:01 AM 4:50 PM
Waxing Crescent, 41% visible
METAR KPRB 061253Z AUTO 13003KT 2 1/2SM BR OVC003 06/06 A3001 RMK AO2 SLP163 T00560056 TSNO $

10-Day Weather Forecast

Almanac

Astronomy

Dec. 06, 2016 Rise Set
Actual Time
Civil Twilight
Nautical Twilight
Astronomical Twilight
Moon
Length of Visible Light
Length of Day
Tomorrow will be .
, % of the Moon is Illuminated

Today's Extremes

State Highs State Lows

Community

WunderPhotos

Upload Photos

1,955,938 photos uploaded!

WunderBlog® & News

Nearby

Air Quality

  Air Quality AQ Index Pollutant
Not available.

Snow Depth

Station Depth Elevation

Earthquake Activity

City Distance Mag. Time & Date
Minimum magnitude displayed is 2.5.

Coastal Water Temperatures

Place Temperature

Stations

Nearby Weather Stations

Station Location Temp. Windchill Dew Point Humidity Wind Precip. Elev Updated Type
                   

Watches & Warnings

There are currently no watches in effect.